sensor_id;sensor_type;location;lat;lon;timestamp;pressure;altitude;pressure_sealevel;temperature;humidity
76074;BME280;64776;42.636;24.358;2023-09-07T00:00:23;90795.91;;;16.54;74.92
76074;BME280;64776;42.636;24.358;2023-09-07T00:03:24;90794.44;;;16.53;75.44
76074;BME280;64776;42.636;24.358;2023-09-07T00:06:26;90786.34;;;16.47;75.67
76074;BME280;64776;42.636;24.358;2023-09-07T00:09:27;90783.91;;;16.49;75.49
76074;BME280;64776;42.636;24.358;2023-09-07T00:12:28;90791.50;;;16.40;75.55
76074;BME280;64776;42.636;24.358;2023-09-07T00:15:29;90785.63;;;16.41;75.42
76074;BME280;64776;42.636;24.358;2023-09-07T00:18:30;90791.75;;;16.42;75.29
76074;BME280;64776;42.636;24.358;2023-09-07T00:21:32;90783.16;;;16.38;75.33
76074;BME280;64776;42.636;24.358;2023-09-07T00:24:33;90786.84;;;16.35;75.66
76074;BME280;64776;42.636;24.358;2023-09-07T00:27:34;90780.25;;;16.36;75.67
76074;BME280;64776;42.636;24.358;2023-09-07T00:30:34;90788.06;;;16.39;75.40
76074;BME280;64776;42.636;24.358;2023-09-07T00:33:35;90787.81;;;16.37;75.50
76074;BME280;64776;42.636;24.358;2023-09-07T00:36:37;90784.38;;;16.37;75.57
76074;BME280;64776;42.636;24.358;2023-09-07T00:39:38;90782.44;;;16.37;75.53
76074;BME280;64776;42.636;24.358;2023-09-07T00:42:39;90775.34;;;16.40;75.37
76074;BME280;64776;42.636;24.358;2023-09-07T00:45:40;90774.84;;;16.36;75.72
76074;BME280;64776;42.636;24.358;2023-09-07T00:48:41;90782.44;;;16.32;76.21
76074;BME280;64776;42.636;24.358;2023-09-07T00:51:43;90779.28;;;16.27;75.93
76074;BME280;64776;42.636;24.358;2023-09-07T00:54:44;90777.31;;;16.22;76.26
76074;BME280;64776;42.636;24.358;2023-09-07T00:57:45;90776.56;;;16.16;76.20
76074;BME280;64776;42.636;24.358;2023-09-07T01:00:46;90771.66;;;16.09;76.25
76074;BME280;64776;42.636;24.358;2023-09-07T01:03:47;90770.47;;;16.10;76.51
76074;BME280;64776;42.636;24.358;2023-09-07T01:06:54;90769.22;;;16.06;75.82
76074;BME280;64776;42.636;24.358;2023-09-07T01:09:58;90771.19;;;16.05;76.58
76074;BME280;64776;42.636;24.358;2023-09-07T01:13:00;90768.00;;;16.01;76.87
76074;BME280;64776;42.636;24.358;2023-09-07T01:16:01;90769.47;;;15.80;76.89
76074;BME280;64776;42.636;24.358;2023-09-07T01:19:03;90769.69;;;15.60;77.83
76074;BME280;64776;42.636;24.358;2023-09-07T01:22:08;90772.16;;;15.69;77.28
76074;BME280;64776;42.636;24.358;2023-09-07T01:25:09;90771.41;;;15.69;77.34
76074;BME280;64776;42.636;24.358;2023-09-07T01:28:10;90774.34;;;15.60;77.61
76074;BME280;64776;42.636;24.358;2023-09-07T01:31:11;90766.75;;;15.47;77.74
76074;BME280;64776;42.636;24.358;2023-09-07T01:34:12;90767.66;;;15.38;78.05
76074;BME280;64776;42.636;24.358;2023-09-07T01:37:14;90776.75;;;15.46;77.67
76074;BME280;64776;42.636;24.358;2023-09-07T01:40:14;90773.03;;;15.33;78.00
76074;BME280;64776;42.636;24.358;2023-09-07T01:43:15;90774.19;;;15.10;78.41
76074;BME280;64776;42.636;24.358;2023-09-07T01:46:16;90767.81;;;15.13;78.26
76074;BME280;64776;42.636;24.358;2023-09-07T01:49:17;90778.38;;;15.27;77.88
76074;BME280;64776;42.636;24.358;2023-09-07T01:52:19;90775.00;;;15.32;77.66
76074;BME280;64776;42.636;24.358;2023-09-07T01:55:20;90776.94;;;15.32;78.50
76074;BME280;64776;42.636;24.358;2023-09-07T01:58:21;90777.94;;;15.34;77.54
76074;BME280;64776;42.636;24.358;2023-09-07T02:01:23;90772.03;;;15.25;78.41
76074;BME280;64776;42.636;24.358;2023-09-07T02:04:24;90777.44;;;15.36;78.85
76074;BME280;64776;42.636;24.358;2023-09-07T02:07:26;90773.28;;;15.35;78.53
76074;BME280;64776;42.636;24.358;2023-09-07T02:10:27;90765.19;;;15.18;80.03
76074;BME280;64776;42.636;24.358;2023-09-07T02:13:27;90770.06;;;15.20;80.50
76074;BME280;64776;42.636;24.358;2023-09-07T02:16:28;90773.25;;;15.24;80.70
76074;BME280;64776;42.636;24.358;2023-09-07T02:19:29;90778.63;;;15.18;80.46
76074;BME280;64776;42.636;24.358;2023-09-07T02:22:31;90773.94;;;15.19;80.92
76074;BME280;64776;42.636;24.358;2023-09-07T02:25:32;90774.19;;;15.15;80.19
76074;BME280;64776;42.636;24.358;2023-09-07T02:28:33;90769.06;;;15.17;80.40
76074;BME280;64776;42.636;24.358;2023-09-07T02:31:33;90781.06;;;15.22;79.70
76074;BME280;64776;42.636;24.358;2023-09-07T02:34:34;90776.69;;;15.24;79.93
76074;BME280;64776;42.636;24.358;2023-09-07T02:37:36;90786.44;;;15.22;80.35
76074;BME280;64776;42.636;24.358;2023-09-07T02:40:40;90786.69;;;15.18;80.84
76074;BME280;64776;42.636;24.358;2023-09-07T02:43:41;90780.06;;;15.14;80.76
76074;BME280;64776;42.636;24.358;2023-09-07T02:46:41;90780.31;;;15.10;80.42
76074;BME280;64776;42.636;24.358;2023-09-07T02:49:42;90791.78;;;15.11;80.91
76074;BME280;64776;42.636;24.358;2023-09-07T02:52:44;90783.72;;;15.11;80.93
76074;BME280;64776;42.636;24.358;2023-09-07T02:55:45;90776.63;;;15.08;80.37
76074;BME280;64776;42.636;24.358;2023-09-07T02:58:46;90784.19;;;15.09;80.05
76074;BME280;64776;42.636;24.358;2023-09-07T03:01:47;90771.25;;;15.08;80.00
76074;BME280;64776;42.636;24.358;2023-09-07T03:04:48;90777.31;;;15.03;80.08
76074;BME280;64776;42.636;24.358;2023-09-07T03:07:54;90783.13;;;14.85;80.59
76074;BME280;64776;42.636;24.358;2023-09-07T03:10:55;90779.41;;;14.77;81.39
76074;BME280;64776;42.636;24.358;2023-09-07T03:13:56;90785.97;;;14.64;80.56
76074;BME280;64776;42.636;24.358;2023-09-07T03:16:57;90781.75;;;14.58;81.07
76074;BME280;64776;42.636;24.358;2023-09-07T03:19:57;90779.75;;;14.47;81.52
76074;BME280;64776;42.636;24.358;2023-09-07T03:23:00;90783.66;;;14.46;81.09
76074;BME280;64776;42.636;24.358;2023-09-07T03:26:02;90780.66;;;14.33;81.06
76074;BME280;64776;42.636;24.358;2023-09-07T03:29:02;90784.44;;;14.21;81.16
76074;BME280;64776;42.636;24.358;2023-09-07T03:32:04;90788.00;;;14.07;81.50
76074;BME280;64776;42.636;24.358;2023-09-07T03:35:05;90786.97;;;13.99;81.79
76074;BME280;64776;42.636;24.358;2023-09-07T03:38:07;90788.78;;;13.82;82.23
76074;BME280;64776;42.636;24.358;2023-09-07T03:41:08;90782.25;;;13.88;81.90
76074;BME280;64776;42.636;24.358;2023-09-07T03:44:09;90781.94;;;13.81;82.31
76074;BME280;64776;42.636;24.358;2023-09-07T03:47:09;90781.41;;;13.77;81.99
76074;BME280;64776;42.636;24.358;2023-09-07T03:50:10;90790.19;;;13.77;81.65
76074;BME280;64776;42.636;24.358;2023-09-07T03:53:13;90782.53;;;13.65;81.82
76074;BME280;64776;42.636;24.358;2023-09-07T03:56:14;90788.09;;;13.61;81.81
76074;BME280;64776;42.636;24.358;2023-09-07T03:59:14;90787.09;;;13.59;82.09
76074;BME280;64776;42.636;24.358;2023-09-07T04:02:15;90796.53;;;13.49;82.91
76074;BME280;64776;42.636;24.358;2023-09-07T04:05:16;90800.53;;;13.33;83.32
76074;BME280;64776;42.636;24.358;2023-09-07T04:08:19;90797.34;;;13.35;83.70
76074;BME280;64776;42.636;24.358;2023-09-07T04:11:19;90800.31;;;13.37;84.19
76074;BME280;64776;42.636;24.358;2023-09-07T04:14:20;90794.94;;;13.37;84.11
76074;BME280;64776;42.636;24.358;2023-09-07T04:17:21;90798.78;;;13.30;84.38
76074;BME280;64776;42.636;24.358;2023-09-07T04:20:22;90796.50;;;13.23;83.85
76074;BME280;64776;42.636;24.358;2023-09-07T04:23:24;90800.38;;;13.22;84.42
76074;BME280;64776;42.636;24.358;2023-09-07T04:26:25;90803.03;;;13.17;85.41
76074;BME280;64776;42.636;24.358;2023-09-07T04:29:26;90798.53;;;13.08;85.53
76074;BME280;64776;42.636;24.358;2023-09-07T04:32:26;90803.69;;;13.12;84.97
76074;BME280;64776;42.636;24.358;2023-09-07T04:35:29;90804.34;;;13.06;85.37
76074;BME280;64776;42.636;24.358;2023-09-07T04:38:31;90801.00;;;13.12;85.08
76074;BME280;64776;42.636;24.358;2023-09-07T04:41:32;90807.75;;;13.07;85.70
76074;BME280;64776;42.636;24.358;2023-09-07T04:44:32;90797.13;;;13.13;85.47
76074;BME280;64776;42.636;24.358;2023-09-07T04:47:34;90803.16;;;13.07;86.19
76074;BME280;64776;42.636;24.358;2023-09-07T04:50:34;90812.78;;;13.20;86.16
76074;BME280;64776;42.636;24.358;2023-09-07T04:53:37;90807.75;;;13.27;86.89
76074;BME280;64776;42.636;24.358;2023-09-07T04:56:38;90803.91;;;13.34;86.79
76074;BME280;64776;42.636;24.358;2023-09-07T04:59:39;90802.63;;;13.49;85.94
76074;BME280;64776;42.636;24.358;2023-09-07T05:02:40;90808.50;;;13.53;86.19
76074;BME280;64776;42.636;24.358;2023-09-07T05:05:41;90799.84;;;13.64;85.95
76074;BME280;64776;42.636;24.358;2023-09-07T05:08:43;90803.03;;;13.68;86.02
76074;BME280;64776;42.636;24.358;2023-09-07T05:11:44;90802.09;;;13.71;85.44
76074;BME280;64776;42.636;24.358;2023-09-07T05:14:45;90798.72;;;13.76;85.18
76074;BME280;64776;42.636;24.358;2023-09-07T05:17:46;90805.66;;;13.88;85.20
76074;BME280;64776;42.636;24.358;2023-09-07T05:20:55;90810.38;;;13.99;84.80
76074;BME280;64776;42.636;24.358;2023-09-07T05:23:57;90807.31;;;14.11;84.61
76074;BME280;64776;42.636;24.358;2023-09-07T05:26:58;90814.91;;;14.18;84.23
76074;BME280;64776;42.636;24.358;2023-09-07T05:29:59;90814.31;;;14.34;83.76
76074;BME280;64776;42.636;24.358;2023-09-07T05:32:59;90810.72;;;14.43;82.96
76074;BME280;64776;42.636;24.358;2023-09-07T05:36:00;90809.56;;;14.55;82.81
76074;BME280;64776;42.636;24.358;2023-09-07T05:39:04;90812.09;;;14.69;82.09
76074;BME280;64776;42.636;24.358;2023-09-07T05:42:04;90817.03;;;14.77;82.22
76074;BME280;64776;42.636;24.358;2023-09-07T05:45:06;90811.72;;;14.88;82.21
76074;BME280;64776;42.636;24.358;2023-09-07T05:48:08;90817.63;;;15.03;81.22
76074;BME280;64776;42.636;24.358;2023-09-07T05:51:09;90818.44;;;15.14;80.52
76074;BME280;64776;42.636;24.358;2023-09-07T05:54:11;90820.69;;;15.27;80.14
76074;BME280;64776;42.636;24.358;2023-09-07T05:57:11;90816.59;;;15.42;78.97
76074;BME280;64776;42.636;24.358;2023-09-07T06:00:13;90811.47;;;15.50;79.09
76074;BME280;64776;42.636;24.358;2023-09-07T06:03:14;90815.41;;;15.60;77.89
76074;BME280;64776;42.636;24.358;2023-09-07T06:06:15;90815.44;;;15.71;77.89
76074;BME280;64776;42.636;24.358;2023-09-07T06:09:17;90815.22;;;15.80;77.36
76074;BME280;64776;42.636;24.358;2023-09-07T06:12:18;90825.03;;;16.00;77.27
76074;BME280;64776;42.636;24.358;2023-09-07T06:15:18;90821.38;;;16.19;75.64
76074;BME280;64776;42.636;24.358;2023-09-07T06:18:19;90820.63;;;16.36;74.57
76074;BME280;64776;42.636;24.358;2023-09-07T06:21:20;90825.06;;;16.61;73.93
76074;BME280;64776;42.636;24.358;2023-09-07T06:24:22;90820.34;;;16.89;72.23
76074;BME280;64776;42.636;24.358;2023-09-07T06:27:23;90819.06;;;17.06;70.60
76074;BME280;64776;42.636;24.358;2023-09-07T06:30:24;90810.91;;;17.29;69.73
76074;BME280;64776;42.636;24.358;2023-09-07T06:33:25;90810.84;;;17.45;67.05
76074;BME280;64776;42.636;24.358;2023-09-07T06:36:25;90819.59;;;17.62;65.33
76074;BME280;64776;42.636;24.358;2023-09-07T06:39:28;90821.47;;;17.78;65.97
76074;BME280;64776;42.636;24.358;2023-09-07T06:42:28;90828.03;;;17.94;63.45
76074;BME280;64776;42.636;24.358;2023-09-07T06:45:29;90820.78;;;18.13;60.24
76074;BME280;64776;42.636;24.358;2023-09-07T06:48:30;90820.44;;;18.28;60.85
76074;BME280;64776;42.636;24.358;2023-09-07T06:51:31;90824.81;;;18.31;57.74
76074;BME280;64776;42.636;24.358;2023-09-07T06:54:33;90821.19;;;18.23;56.65
76074;BME280;64776;42.636;24.358;2023-09-07T06:57:34;90817.63;;;18.39;55.26
76074;BME280;64776;42.636;24.358;2023-09-07T07:00:35;90817.63;;;18.39;54.17
76074;BME280;64776;42.636;24.358;2023-09-07T07:03:36;90823.22;;;18.52;55.25
76074;BME280;64776;42.636;24.358;2023-09-07T07:06:36;90810.69;;;18.79;54.92
76074;BME280;64776;42.636;24.358;2023-09-07T07:09:39;90816.03;;;19.08;54.09
76074;BME280;64776;42.636;24.358;2023-09-07T07:12:39;90814.34;;;19.29;52.18
76074;BME280;64776;42.636;24.358;2023-09-07T07:15:41;90822.50;;;19.48;51.63
76074;BME280;64776;42.636;24.358;2023-09-07T07:18:42;90822.75;;;19.69;51.43
76074;BME280;64776;42.636;24.358;2023-09-07T07:21:42;90824.06;;;19.81;52.33
76074;BME280;64776;42.636;24.358;2023-09-07T07:24:44;90810.03;;;19.82;49.33
76074;BME280;64776;42.636;24.358;2023-09-07T07:27:45;90818.06;;;19.88;50.47
76074;BME280;64776;42.636;24.358;2023-09-07T07:30:46;90821.88;;;19.98;49.38
76074;BME280;64776;42.636;24.358;2023-09-07T07:33:47;90821.09;;;20.03;49.17
76074;BME280;64776;42.636;24.358;2023-09-07T07:36:48;90820.16;;;20.13;48.92
76074;BME280;64776;42.636;24.358;2023-09-07T07:39:50;90826.63;;;20.29;48.44
76074;BME280;64776;42.636;24.358;2023-09-07T07:42:51;90829.63;;;20.44;48.45
76074;BME280;64776;42.636;24.358;2023-09-07T07:45:53;90824.88;;;20.63;47.98
76074;BME280;64776;42.636;24.358;2023-09-07T07:48:54;90822.38;;;20.65;45.67
76074;BME280;64776;42.636;24.358;2023-09-07T07:51:55;90822.63;;;20.80;47.16
76074;BME280;64776;42.636;24.358;2023-09-07T07:54:57;90824.53;;;20.98;46.08
76074;BME280;64776;42.636;24.358;2023-09-07T07:57:58;90832.81;;;21.06;45.06
76074;BME280;64776;42.636;24.358;2023-09-07T08:00:59;90823.56;;;20.96;46.56
76074;BME280;64776;42.636;24.358;2023-09-07T08:04:00;90824.72;;;21.00;47.02
76074;BME280;64776;42.636;24.358;2023-09-07T08:07:00;90815.34;;;21.01;45.79
76074;BME280;64776;42.636;24.358;2023-09-07T08:10:03;90810.72;;;20.70;45.58
76074;BME280;64776;42.636;24.358;2023-09-07T08:13:04;90820.91;;;21.09;45.35
76074;BME280;64776;42.636;24.358;2023-09-07T08:16:05;90814.03;;;21.08;45.35
76074;BME280;64776;42.636;24.358;2023-09-07T08:19:06;90809.03;;;21.38;44.87
76074;BME280;64776;42.636;24.358;2023-09-07T08:22:06;90817.88;;;21.52;43.66
76074;BME280;64776;42.636;24.358;2023-09-07T08:25:09;90826.75;;;21.52;44.07
76074;BME280;64776;42.636;24.358;2023-09-07T08:28:10;90814.44;;;21.64;44.00
76074;BME280;64776;42.636;24.358;2023-09-07T08:31:11;90818.50;;;21.71;43.18
76074;BME280;64776;42.636;24.358;2023-09-07T08:34:12;90822.69;;;21.85;43.90
76074;BME280;64776;42.636;24.358;2023-09-07T08:37:13;90825.78;;;22.02;43.79
76074;BME280;64776;42.636;24.358;2023-09-07T08:40:15;90831.56;;;21.99;42.52
76074;BME280;64776;42.636;24.358;2023-09-07T08:43:16;90829.59;;;21.86;43.56
76074;BME280;64776;42.636;24.358;2023-09-07T08:46:18;90825.94;;;21.44;43.57
76074;BME280;64776;42.636;24.358;2023-09-07T08:49:19;90834.09;;;21.44;44.07
76074;BME280;64776;42.636;24.358;2023-09-07T08:52:20;90823.00;;;21.68;43.84
76074;BME280;64776;42.636;24.358;2023-09-07T08:55:23;90825.88;;;22.10;43.06
76074;BME280;64776;42.636;24.358;2023-09-07T08:58:24;90821.41;;;22.33;43.17
76074;BME280;64776;42.636;24.358;2023-09-07T09:01:25;90829.31;;;22.44;43.49
76074;BME280;64776;42.636;24.358;2023-09-07T09:04:27;90826.72;;;22.38;43.33
76074;BME280;64776;42.636;24.358;2023-09-07T09:07:28;90830.16;;;22.05;43.36
76074;BME280;64776;42.636;24.358;2023-09-07T09:10:30;90824.09;;;22.12;43.76
76074;BME280;64776;42.636;24.358;2023-09-07T09:13:31;90818.06;;;21.93;43.57
76074;BME280;64776;42.636;24.358;2023-09-07T09:16:32;90815.34;;;21.80;45.83
76074;BME280;64776;42.636;24.358;2023-09-07T09:19:33;90817.34;;;22.26;44.00
76074;BME280;64776;42.636;24.358;2023-09-07T09:22:35;90813.38;;;22.27;44.67
76074;BME280;64776;42.636;24.358;2023-09-07T09:25:37;90813.09;;;22.18;43.43
76074;BME280;64776;42.636;24.358;2023-09-07T09:28:40;90804.34;;;22.32;44.17
76074;BME280;64776;42.636;24.358;2023-09-07T09:31:41;90809.28;;;22.34;43.98
76074;BME280;64776;42.636;24.358;2023-09-07T09:34:43;90800.50;;;22.48;44.23
76074;BME280;64776;42.636;24.358;2023-09-07T09:37:45;90806.78;;;22.56;44.21
76074;BME280;64776;42.636;24.358;2023-09-07T09:40:47;90795.16;;;22.56;44.55
76074;BME280;64776;42.636;24.358;2023-09-07T09:43:48;90802.38;;;22.53;45.29
76074;BME280;64776;42.636;24.358;2023-09-07T09:46:49;90802.16;;;22.64;45.68
76074;BME280;64776;42.636;24.358;2023-09-07T09:49:52;90801.41;;;23.05;44.46
76074;BME280;64776;42.636;24.358;2023-09-07T09:52:53;90805.81;;;23.16;43.33
76074;BME280;64776;42.636;24.358;2023-09-07T09:55:55;90805.69;;;23.50;44.06
76074;BME280;64776;42.636;24.358;2023-09-07T09:58:56;90799.47;;;23.41;43.20
76074;BME280;64776;42.636;24.358;2023-09-07T10:01:57;90791.31;;;23.21;44.52
76074;BME280;64776;42.636;24.358;2023-09-07T10:05:00;90798.41;;;22.96;44.46
76074;BME280;64776;42.636;24.358;2023-09-07T10:08:08;90798.81;;;23.00;44.29
76074;BME280;64776;42.636;24.358;2023-09-07T10:11:10;90802.56;;;22.69;45.80
76074;BME280;64776;42.636;24.358;2023-09-07T10:14:11;90797.88;;;22.35;47.18
76074;BME280;64776;42.636;24.358;2023-09-07T10:17:21;90803.84;;;22.00;47.98
76074;BME280;64776;42.636;24.358;2023-09-07T10:20:22;90801.41;;;22.10;47.72
76074;BME280;64776;42.636;24.358;2023-09-07T10:23:23;90789.41;;;22.59;47.90
76074;BME280;64776;42.636;24.358;2023-09-07T10:26:36;90803.03;;;22.46;47.10
76074;BME280;64776;42.636;24.358;2023-09-07T10:29:41;90804.63;;;22.21;46.99
76074;BME280;64776;42.636;24.358;2023-09-07T10:32:41;90792.34;;;22.28;47.22
76074;BME280;64776;42.636;24.358;2023-09-07T10:35:43;90803.06;;;22.13;48.05
76074;BME280;64776;42.636;24.358;2023-09-07T10:38:43;90802.19;;;21.71;49.36
76074;BME280;64776;42.636;24.358;2023-09-07T10:41:46;90808.16;;;21.56;50.70
76074;BME280;64776;42.636;24.358;2023-09-07T10:44:47;90798.47;;;21.48;50.50
76074;BME280;64776;42.636;24.358;2023-09-07T10:47:48;90803.09;;;21.27;49.21
76074;BME280;64776;42.636;24.358;2023-09-07T10:50:48;90798.06;;;21.31;49.66
76074;BME280;64776;42.636;24.358;2023-09-07T10:53:49;90791.13;;;21.56;49.66
76074;BME280;64776;42.636;24.358;2023-09-07T10:56:51;90794.72;;;21.38;49.71
76074;BME280;64776;42.636;24.358;2023-09-07T10:59:53;90793.44;;;21.13;50.08
76074;BME280;64776;42.636;24.358;2023-09-07T11:02:54;90798.03;;;20.91;50.63
76074;BME280;64776;42.636;24.358;2023-09-07T11:05:58;90797.00;;;21.08;50.21
76074;BME280;64776;42.636;24.358;2023-09-07T11:08:59;90788.44;;;21.30;50.32
76074;BME280;64776;42.636;24.358;2023-09-07T11:12:06;90786.06;;;21.26;48.55
76074;BME280;64776;42.636;24.358;2023-09-07T11:15:09;90778.41;;;21.25;49.51
76074;BME280;64776;42.636;24.358;2023-09-07T11:18:10;90776.66;;;21.53;49.87
76074;BME280;64776;42.636;24.358;2023-09-07T11:21:11;90775.66;;;21.64;49.92
76074;BME280;64776;42.636;24.358;2023-09-07T11:24:12;90780.13;;;21.74;49.01
76074;BME280;64776;42.636;24.358;2023-09-07T11:27:17;90777.44;;;21.88;49.87
76074;BME280;64776;42.636;24.358;2023-09-07T11:30:17;90785.97;;;22.05;51.27
76074;BME280;64776;42.636;24.358;2023-09-07T11:33:19;90774.44;;;22.32;48.06
76074;BME280;64776;42.636;24.358;2023-09-07T11:36:19;90772.00;;;22.21;47.62
76074;BME280;64776;42.636;24.358;2023-09-07T11:39:20;90776.44;;;22.11;48.75
76074;BME280;64776;42.636;24.358;2023-09-07T11:42:22;90777.91;;;21.99;48.86
76074;BME280;64776;42.636;24.358;2023-09-07T11:45:23;90768.03;;;21.62;48.03
76074;BME280;64776;42.636;24.358;2023-09-07T11:48:28;90758.75;;;21.71;49.00
76074;BME280;64776;42.636;24.358;2023-09-07T11:51:29;90756.84;;;21.66;49.10
76074;BME280;64776;42.636;24.358;2023-09-07T11:54:29;90769.06;;;21.85;48.01
76074;BME280;64776;42.636;24.358;2023-09-07T11:57:32;90765.59;;;21.98;47.67
76074;BME280;64776;42.636;24.358;2023-09-07T12:00:33;90760.78;;;21.91;48.71
76074;BME280;64776;42.636;24.358;2023-09-07T12:03:34;90760.09;;;21.64;48.98
76074;BME280;64776;42.636;24.358;2023-09-07T12:06:35;90754.50;;;21.49;50.04
76074;BME280;64776;42.636;24.358;2023-09-07T12:09:36;90753.56;;;21.34;50.33
76074;BME280;64776;42.636;24.358;2023-09-07T12:12:38;90751.06;;;21.36;49.68
76074;BME280;64776;42.636;24.358;2023-09-07T12:15:39;90752.91;;;21.54;50.36
76074;BME280;64776;42.636;24.358;2023-09-07T12:18:40;90753.63;;;21.67;50.84
76074;BME280;64776;42.636;24.358;2023-09-07T12:21:41;90746.88;;;21.48;49.84
76074;BME280;64776;42.636;24.358;2023-09-07T12:24:42;90742.50;;;21.45;51.67
76074;BME280;64776;42.636;24.358;2023-09-07T12:27:44;90745.84;;;21.38;49.65
76074;BME280;64776;42.636;24.358;2023-09-07T12:30:44;90739.78;;;21.32;50.17
76074;BME280;64776;42.636;24.358;2023-09-07T12:33:45;90753.78;;;21.49;50.45
76074;BME280;64776;42.636;24.358;2023-09-07T12:36:46;90752.28;;;21.61;50.48
76074;BME280;64776;42.636;24.358;2023-09-07T12:39:47;90750.59;;;21.58;49.19
76074;BME280;64776;42.636;24.358;2023-09-07T12:42:49;90756.03;;;21.58;49.40
76074;BME280;64776;42.636;24.358;2023-09-07T12:45:50;90752.72;;;21.52;50.22
76074;BME280;64776;42.636;24.358;2023-09-07T12:48:50;90758.66;;;21.63;49.94
76074;BME280;64776;42.636;24.358;2023-09-07T12:51:51;90750.19;;;21.54;49.82
76074;BME280;64776;42.636;24.358;2023-09-07T12:54:52;90761.47;;;21.58;49.87
76074;BME280;64776;42.636;24.358;2023-09-07T12:57:54;90758.88;;;21.52;50.09
76074;BME280;64776;42.636;24.358;2023-09-07T13:00:55;90762.22;;;21.58;51.05
76074;BME280;64776;42.636;24.358;2023-09-07T13:03:56;90759.00;;;21.47;50.82
76074;BME280;64776;42.636;24.358;2023-09-07T13:06:57;90762.75;;;21.44;50.75
76074;BME280;64776;42.636;24.358;2023-09-07T13:09:57;90767.88;;;21.47;51.26
76074;BME280;64776;42.636;24.358;2023-09-07T13:13:00;90764.03;;;21.30;52.12
76074;BME280;64776;42.636;24.358;2023-09-07T13:16:00;90772.81;;;21.10;52.76
76074;BME280;64776;42.636;24.358;2023-09-07T13:19:01;90770.69;;;20.89;53.79
76074;BME280;64776;42.636;24.358;2023-09-07T13:22:02;90772.84;;;20.78;54.29
76074;BME280;64776;42.636;24.358;2023-09-07T13:25:04;90772.53;;;20.81;54.81
76074;BME280;64776;42.636;24.358;2023-09-07T13:28:06;90767.34;;;20.83;54.35
76074;BME280;64776;42.636;24.358;2023-09-07T13:31:07;90769.84;;;20.94;53.93
76074;BME280;64776;42.636;24.358;2023-09-07T13:34:08;90761.22;;;21.09;54.33
76074;BME280;64776;42.636;24.358;2023-09-07T13:37:09;90765.09;;;21.27;54.33
76074;BME280;64776;42.636;24.358;2023-09-07T13:40:10;90756.91;;;21.40;53.75
76074;BME280;64776;42.636;24.358;2023-09-07T13:43:12;90767.34;;;21.49;53.08
76074;BME280;64776;42.636;24.358;2023-09-07T13:46:13;90761.88;;;21.88;53.00
76074;BME280;64776;42.636;24.358;2023-09-07T13:49:14;90748.25;;;22.42;51.98
76074;BME280;64776;42.636;24.358;2023-09-07T13:52:15;90743.38;;;22.61;50.41
76074;BME280;64776;42.636;24.358;2023-09-07T13:55:16;90739.78;;;22.67;48.88
76074;BME280;64776;42.636;24.358;2023-09-07T13:58:18;90732.56;;;22.97;48.46
76074;BME280;64776;42.636;24.358;2023-09-07T14:01:19;90737.25;;;23.25;47.19
76074;BME280;64776;42.636;24.358;2023-09-07T14:04:20;90737.75;;;22.88;47.55
76074;BME280;64776;42.636;24.358;2023-09-07T14:07:21;90736.50;;;22.89;47.89
76074;BME280;64776;42.636;24.358;2023-09-07T14:10:21;90739.56;;;22.85;47.67
76074;BME280;64776;42.636;24.358;2023-09-07T14:13:24;90738.09;;;22.43;48.16
76074;BME280;64776;42.636;24.358;2023-09-07T14:16:24;90738.41;;;21.98;48.97
76074;BME280;64776;42.636;24.358;2023-09-07T14:19:26;90744.09;;;21.87;50.56
76074;BME280;64776;42.636;24.358;2023-09-07T14:22:26;90751.41;;;21.92;50.31
76074;BME280;64776;42.636;24.358;2023-09-07T14:25:27;90741.69;;;21.37;51.31
76074;BME280;64776;42.636;24.358;2023-09-07T14:28:29;90735.19;;;21.40;51.34
76074;BME280;64776;42.636;24.358;2023-09-07T14:31:30;90737.91;;;21.40;51.47
76074;BME280;64776;42.636;24.358;2023-09-07T14:34:31;90730.28;;;21.25;52.18
76074;BME280;64776;42.636;24.358;2023-09-07T14:37:32;90731.44;;;21.17;52.89
76074;BME280;64776;42.636;24.358;2023-09-07T14:40:33;90738.88;;;21.16;52.26
76074;BME280;64776;42.636;24.358;2023-09-07T14:43:35;90735.50;;;21.36;52.23
76074;BME280;64776;42.636;24.358;2023-09-07T14:46:36;90737.28;;;21.21;52.47
76074;BME280;64776;42.636;24.358;2023-09-07T14:49:37;90734.56;;;21.21;52.34
76074;BME280;64776;42.636;24.358;2023-09-07T14:52:38;90736.13;;;21.29;52.39
76074;BME280;64776;42.636;24.358;2023-09-07T14:55:39;90738.88;;;21.16;52.37
76074;BME280;64776;42.636;24.358;2023-09-07T14:58:41;90739.47;;;21.35;53.15
76074;BME280;64776;42.636;24.358;2023-09-07T15:01:42;90740.00;;;21.21;53.09
76074;BME280;64776;42.636;24.358;2023-09-07T15:04:42;90730.63;;;21.22;52.74
76074;BME280;64776;42.636;24.358;2023-09-07T15:07:44;90736.06;;;21.22;52.98
76074;BME280;64776;42.636;24.358;2023-09-07T15:10:45;90731.47;;;21.03;52.85
76074;BME280;64776;42.636;24.358;2023-09-07T15:13:47;90737.06;;;20.92;53.48
76074;BME280;64776;42.636;24.358;2023-09-07T15:16:47;90743.00;;;20.78;53.81
76074;BME280;64776;42.636;24.358;2023-09-07T15:19:48;90736.72;;;20.44;54.67
76074;BME280;64776;42.636;24.358;2023-09-07T15:22:49;90743.59;;;20.45;55.39
76074;BME280;64776;42.636;24.358;2023-09-07T15:25:50;90755.00;;;20.56;55.10
76074;BME280;64776;42.636;24.358;2023-09-07T15:28:52;90746.50;;;20.47;55.33
76074;BME280;64776;42.636;24.358;2023-09-07T15:31:53;90740.53;;;20.35;55.13
76074;BME280;64776;42.636;24.358;2023-09-07T15:34:53;90748.56;;;20.09;56.43
76074;BME280;64776;42.636;24.358;2023-09-07T15:37:54;90747.50;;;19.99;56.86
76074;BME280;64776;42.636;24.358;2023-09-07T15:40:55;90743.53;;;20.00;56.56
76074;BME280;64776;42.636;24.358;2023-09-07T15:43:58;90741.47;;;20.06;57.40
76074;BME280;64776;42.636;24.358;2023-09-07T15:46:58;90744.28;;;19.82;57.12